Berane Airport


Codes: LYBR/IVG
Name: Berane Airport
City: Berane
Country: Montenegro
Elevation: 2287 ft.
Wikipedia:

Photos at Berane Airport


   Photos courtesy of SpottingLog. You can add your own sightings and photos by signing up for a free trial today.



No photos found.

Weather at Berane Airport


Time (UTC)DescriptionTempratureWindCloud coverageVisibilityPressureHumidity
26-Jun-2024 00:00Clear Sky16°C4 mph, SE9%10000m1017hPa85%
26-Jun-2024 03:00Clear Sky16°C4 mph, SE6%10000m1017hPa83%
26-Jun-2024 06:00Clear Sky21°C2 mph, E7%10000m1016hPa64%
26-Jun-2024 09:00Few Clouds30°C2 mph, SW14%10000m1013hPa31%
26-Jun-2024 12:00Broken Clouds29°C2 mph, SE54%10000m1013hPa44%
26-Jun-2024 15:00Broken Clouds29°C4 mph, SW80%10000m1011hPa38%
26-Jun-2024 18:00Broken Clouds21°C4 mph, SE75%10000m1013hPa78%
26-Jun-2024 21:00Light Rain17°C4 mph, SE51%10000m1016hPa92%
27-Jun-2024 00:00Scattered Clouds15°C4 mph, SE27%10000m1015hPa92%
27-Jun-2024 03:00Scattered Clouds15°C4 mph, S46%10000m1014hPa85%
27-Jun-2024 06:00Broken Clouds21°C2 mph, W76%10000m1013hPa65%
27-Jun-2024 09:00Light Rain25°C4 mph, NW89%10000m1012hPa55%
27-Jun-2024 12:00Moderate Rain23°C2 mph, W88%4673m1012hPa74%
27-Jun-2024 15:00Moderate Rain18°C4 mph, NE98%8463m1015hPa98%
27-Jun-2024 18:00Light Rain17°C0 mph, SW92%10000m1014hPa96%
27-Jun-2024 21:00Overcast Clouds15°C2 mph, S93%10000m1016hPa96%
28-Jun-2024 00:00Overcast Clouds14°C2 mph, S94%10000m1016hPa97%
28-Jun-2024 03:00Clear Sky14°C0 mph, S0%10000m1016hPa97%
28-Jun-2024 06:00Few Clouds17°C2 mph, N19%10000m1017hPa92%
28-Jun-2024 09:00Light Rain21°C4 mph, NW94%10000m1017hPa74%
28-Jun-2024 12:00Light Rain24°C7 mph, NE76%10000m1016hPa65%
28-Jun-2024 15:00Light Rain22°C4 mph, N65%10000m1017hPa89%
28-Jun-2024 18:00Light Rain19°C4 mph, NE41%10000m1019hPa95%
28-Jun-2024 21:00Light Rain16°C2 mph, NE45%10000m1021hPa97%
29-Jun-2024 00:00Scattered Clouds15°C2 mph, NE31%10000m1021hPa98%
29-Jun-2024 03:00Scattered Clouds15°C2 mph, E41%10000m1021hPa99%
29-Jun-2024 06:00Scattered Clouds18°C2 mph, NE39%10000m1022hPa92%
29-Jun-2024 09:00Few Clouds26°C7 mph, NE14%10000m1020hPa49%
29-Jun-2024 12:00Clear Sky29°C9 mph, NE7%10000m1018hPa38%
29-Jun-2024 15:00Clear Sky28°C7 mph, NE10%10000m1017hPa44%
29-Jun-2024 18:00Few Clouds22°C4 mph, E13%10000m1019hPa80%
29-Jun-2024 21:00Clear Sky18°C4 mph, SE0%10000m1020hPa85%
30-Jun-2024 00:00Clear Sky17°C4 mph, SE0%10000m1019hPa85%
30-Jun-2024 03:00Clear Sky16°C4 mph, SE0%10000m1019hPa85%
30-Jun-2024 06:00Clear Sky24°C2 mph, SE0%10000m1017hPa58%
30-Jun-2024 09:00Clear Sky31°C2 mph, NW0%10000m1015hPa34%
30-Jun-2024 12:00Clear Sky33°C4 mph, N0%10000m1013hPa28%
30-Jun-2024 15:00Clear Sky32°C2 mph, NE0%10000m1013hPa35%
30-Jun-2024 18:00Clear Sky25°C4 mph, S0%10000m1014hPa75%
30-Jun-2024 21:00Clear Sky21°C7 mph, S0%10000m1015hPa90%